createdAt,value
2019-04-16T00:01:29.284Z,67.52
2019-04-16T00:04:22.274Z,66.92
2019-04-16T00:07:06.862Z,67.22
2019-04-16T00:09:57.304Z,67.69
2019-04-16T00:12:32.453Z,67.26
2019-04-16T00:15:09.330Z,67.26
2019-04-16T00:17:44.401Z,67.81
2019-04-16T00:20:18.050Z,67.81
2019-04-16T00:23:08.647Z,68.46
2019-04-16T00:25:41.072Z,67.94
2019-04-16T00:28:14.630Z,68.86
2019-04-16T00:30:47.364Z,69.37
2019-04-16T00:33:19.842Z,66.61
2019-04-16T00:35:52.418Z,66.61
2019-04-16T00:38:24.738Z,68.74
2019-04-16T00:41:01.334Z,69.21
2019-04-16T00:43:33.406Z,69.10
2019-04-16T00:46:08.290Z,68.87
2019-04-16T00:48:40.307Z,69.88
2019-04-16T00:51:12.375Z,70.30
2019-04-16T00:53:44.558Z,70.47
2019-04-16T00:56:17.298Z,70.71
2019-04-16T00:58:52.033Z,69.80
2019-04-16T01:01:23.771Z,70.47
2019-04-16T01:03:56.472Z,70.47
2019-04-16T01:06:28.829Z,70.74
2019-04-16T01:09:01.417Z,70.48
2019-04-16T01:11:35.739Z,71.08
2019-04-16T01:14:10.002Z,71.57
2019-04-16T01:16:42.383Z,71.57
2019-04-16T01:19:15.881Z,70.64
2019-04-16T01:21:48.347Z,70.30
2019-04-16T01:24:21.191Z,66.70
2019-04-16T01:26:55.363Z,71.04
2019-04-16T01:29:27.978Z,71.04
2019-04-16T01:32:02.291Z,70.02
2019-04-16T01:34:34.570Z,72.42
2019-04-16T01:37:14.698Z,72.42
2019-04-16T01:39:48.625Z,72.70
2019-04-16T01:42:23.517Z,71.85
2019-04-16T01:44:59.402Z,71.41
2019-04-16T01:47:29.391Z,71.81
2019-04-16T01:50:01.877Z,72.26
2019-04-16T01:52:34.382Z,71.97
2019-04-16T01:55:08.380Z,72.90
2019-04-16T01:57:40.718Z,71.72
2019-04-16T02:00:13.517Z,71.72
2019-04-16T02:02:47.005Z,72.10
2019-04-16T02:05:20.364Z,72.62
2019-04-16T02:07:56.369Z,72.99
2019-04-16T02:10:28.461Z,73.21
2019-04-16T02:13:00.835Z,73.51
2019-04-16T02:15:33.325Z,73.11
2019-04-16T02:18:05.670Z,73.76
2019-04-16T02:20:40.304Z,73.76
2019-04-16T02:23:13.573Z,74.35
2019-04-16T02:25:48.458Z,73.72
2019-04-16T02:28:21.858Z,73.72
2019-04-16T02:30:54.689Z,74.50
2019-04-16T02:33:30.665Z,74.50
2019-04-16T02:36:06.640Z,74.89
2019-04-16T02:38:46.281Z,74.30
2019-04-16T02:41:14.532Z,74.53
2019-04-16T02:43:47.290Z,72.45
2019-04-16T02:46:19.659Z,74.47
2019-04-16T02:50:39.291Z,74.10
2019-04-16T02:53:16.317Z,74.67
2019-04-16T02:55:54.460Z,74.69
2019-04-16T02:58:34.526Z,74.69
2019-04-16T03:01:24.230Z,74.32
2019-04-16T03:04:04.321Z,74.90
2019-04-16T03:06:37.985Z,74.70
2019-04-16T03:09:10.708Z,75.39
2019-04-16T03:11:45.618Z,75.39
2019-04-16T03:14:17.704Z,74.33
2019-04-16T03:17:10.203Z,74.90
2019-04-16T03:19:44.302Z,72.08
2019-04-16T03:22:16.665Z,75.31
2019-04-16T03:24:49.166Z,75.31
2019-04-16T03:27:22.864Z,73.68
2019-04-16T03:29:55.418Z,74.36
2019-04-16T03:32:33.582Z,75.89
2019-04-16T03:35:02.160Z,76.35
2019-04-16T03:37:34.673Z,74.33
2019-04-16T03:40:16.177Z,74.33
2019-04-16T03:42:42.766Z,75.22
2019-04-16T03:45:15.334Z,74.25
2019-04-16T03:47:50.857Z,75.53
2019-04-16T03:50:22.285Z,75.53
2019-04-16T03:52:55.270Z,75.80
2019-04-16T03:55:28.301Z,72.80
2019-04-16T03:58:05.442Z,72.80
2019-04-16T04:00:35.354Z,76.61
2019-04-16T04:03:07.622Z,70.27
2019-04-16T04:05:40.250Z,70.27
2019-04-16T04:08:16.092Z,74.35
2019-04-16T04:10:46.773Z,75.88
2019-04-16T04:13:18.907Z,75.88
2019-04-16T04:15:55.131Z,75.84
2019-04-16T04:18:27.748Z,75.84
2019-04-16T04:21:00.313Z,76.02
2019-04-16T04:23:32.601Z,75.77
2019-04-16T04:26:05.479Z,75.77
2019-04-16T04:31:32.022Z,75.93
2019-04-16T04:34:01.854Z,75.76
2019-04-16T04:36:35.442Z,76.01
2019-04-16T04:39:14.416Z,75.65
2019-04-16T04:41:43.574Z,73.34
2019-04-16T04:44:16.291Z,76.72
2019-04-16T04:46:48.655Z,76.49
2019-04-16T04:49:21.288Z,76.49
2019-04-16T04:51:53.785Z,76.74
2019-04-16T04:54:26.414Z,76.74
2019-04-16T04:56:59.929Z,76.44
2019-04-16T04:59:36.485Z,76.68
2019-04-16T05:02:06.768Z,76.77
2019-04-16T05:04:43.896Z,77.09
2019-04-16T05:07:17.887Z,76.74
2019-04-16T05:09:50.645Z,77.17
2019-04-16T05:12:23.294Z,76.89
2019-04-16T05:14:58.468Z,76.04
2019-04-16T05:17:31.039Z,76.90
2019-04-16T05:22:21.537Z,76.65
2019-04-16T05:24:54.328Z,77.13
2019-04-16T05:27:29.452Z,77.10
2019-04-16T05:30:02.288Z,77.10
2019-04-16T05:32:34.769Z,75.49
2019-04-16T05:35:10.404Z,75.49
2019-04-16T05:37:43.454Z,76.02
2019-04-16T05:40:16.242Z,76.02
2019-04-16T05:42:48.755Z,74.50
2019-04-16T05:45:21.294Z,74.50
2019-04-16T05:47:53.819Z,72.78
2019-04-16T05:50:29.687Z,72.78
2019-04-16T05:53:01.144Z,73.38
2019-04-16T05:55:38.370Z,71.41
2019-04-16T05:58:11.842Z,70.13
2019-04-16T06:00:45.865Z,70.49
2019-04-16T06:03:21.877Z,70.96
2019-04-16T06:05:56.307Z,69.60
2019-04-16T06:08:28.793Z,69.28
2019-04-16T06:11:03.792Z,69.09
2019-04-16T06:13:53.349Z,68.85
2019-04-16T06:16:27.521Z,68.60
2019-04-16T06:19:04.420Z,68.32
2019-04-16T06:21:41.537Z,62.73
2019-04-16T06:24:17.367Z,64.36
2019-04-16T06:27:01.663Z,66.65
2019-04-16T06:29:39.807Z,66.65
2019-04-16T06:32:18.335Z,64.88
2019-04-16T06:34:57.751Z,65.59
2019-04-16T06:37:32.290Z,64.22
2019-04-16T06:40:24.276Z,63.22
2019-04-16T06:43:02.759Z,63.18
2019-04-16T06:45:37.978Z,63.18
2019-04-16T06:48:13.816Z,63.58
2019-04-16T06:50:51.053Z,63.56
2019-04-16T06:53:34.450Z,62.21
2019-04-16T06:56:09.590Z,62.21
2019-04-16T06:58:51.530Z,62.14
2019-04-16T07:01:28.719Z,61.84
2019-04-16T07:04:06.486Z,60.98
2019-04-16T07:06:46.672Z,59.48
2019-04-16T07:09:35.135Z,59.74
2019-04-16T07:12:02.829Z,59.17
2019-04-16T07:14:36.162Z,58.83
2019-04-16T07:17:10.447Z,57.16
2019-04-16T07:19:50.938Z,57.16
2019-04-16T07:22:24.430Z,57.17
2019-04-16T07:24:57.421Z,55.83
2019-04-16T07:27:36.124Z,55.49
2019-04-16T07:30:09.647Z,54.48
2019-04-16T07:32:46.957Z,54.62
2019-04-16T07:35:37.279Z,51.81
2019-04-16T07:38:24.888Z,52.42
2019-04-16T07:41:23.242Z,51.74
2019-04-16T07:44:08.080Z,51.74
2019-04-16T07:46:47.051Z,51.74
2019-04-16T07:49:27.295Z,49.99
2019-04-16T07:52:18.795Z,49.11
2019-04-16T07:54:54.435Z,49.11
2019-04-16T07:57:27.425Z,48.67
2019-04-16T08:00:00.298Z,48.82
2019-04-16T08:02:34.183Z,48.47
2019-04-16T08:05:10.004Z,48.71
2019-04-16T08:07:42.859Z,47.84
2019-04-16T08:10:16.989Z,47.84
2019-04-16T08:12:51.362Z,47.57
2019-04-16T08:15:24.066Z,47.71
2019-04-16T08:17:56.655Z,45.96
2019-04-16T08:20:29.320Z,45.96
2019-04-16T08:23:03.352Z,45.78
2019-04-16T08:25:35.907Z,45.78
2019-04-16T08:28:08.882Z,44.45
2019-04-16T08:30:43.049Z,44.30
2019-04-16T08:33:15.807Z,43.05
2019-04-16T08:35:48.535Z,42.49
2019-04-16T08:38:21.294Z,42.55
2019-04-16T08:40:54.320Z,43.13
2019-04-16T08:43:29.682Z,42.26
2019-04-16T08:46:00.814Z,41.88
2019-04-16T08:48:33.490Z,41.88
2019-04-16T08:51:06.434Z,41.99
2019-04-16T08:53:38.895Z,42.21
2019-04-16T08:56:11.338Z,41.55
2019-04-16T08:58:43.836Z,42.17
2019-04-16T09:01:18.701Z,42.17
2019-04-16T09:03:51.675Z,41.11
2019-04-16T09:06:24.296Z,40.65
2019-04-16T09:09:12.873Z,40.47
2019-04-16T09:11:40.338Z,40.77
2019-04-16T09:14:12.903Z,40.02
2019-04-16T09:16:46.357Z,40.02
2019-04-16T09:19:21.554Z,40.38
2019-04-16T09:21:53.430Z,39.73
2019-04-16T09:24:33.370Z,39.67
2019-04-16T09:27:28.669Z,39.17
2019-04-16T09:30:02.569Z,38.76
2019-04-16T09:32:39.047Z,38.66
2019-04-16T09:35:28.311Z,38.82
2019-04-16T09:37:59.870Z,37.75
2019-04-16T09:40:50.039Z,37.75
2019-04-16T09:43:24.340Z,38.01
2019-04-16T09:46:09.624Z,37.33
2019-04-16T09:48:34.507Z,37.15
2019-04-16T09:51:06.501Z,37.09
2019-04-16T09:53:40.379Z,36.75
2019-04-16T09:56:30.138Z,37.02
2019-04-16T09:59:15.686Z,36.74
2019-04-16T10:01:47.788Z,37.11
2019-04-16T10:04:21.293Z,36.28
2019-04-16T10:06:53.847Z,36.69
2019-04-16T10:12:10.672Z,36.14
2019-04-16T10:14:43.324Z,35.55
2019-04-16T10:17:15.748Z,35.27
2019-04-16T10:19:49.420Z,35.27
2019-04-16T10:22:21.890Z,35.16
2019-04-16T10:25:09.482Z,34.65
2019-04-16T10:27:44.291Z,34.63
2019-04-16T10:30:20.296Z,34.17
2019-04-16T10:32:52.706Z,33.56
2019-04-16T10:35:25.786Z,33.56
2019-04-16T10:38:03.042Z,33.67
2019-04-16T10:40:38.281Z,33.41
2019-04-16T10:43:19.971Z,33.48
2019-04-16T10:46:00.671Z,33.48
2019-04-16T10:48:40.642Z,33.64
2019-04-16T10:51:15.508Z,32.42
2019-04-16T10:53:53.421Z,32.80
2019-04-16T10:56:33.540Z,32.80
2019-04-16T10:59:18.744Z,32.36
2019-04-16T11:01:52.802Z,32.51
2019-04-16T11:04:44.004Z,31.95
2019-04-16T11:07:25.785Z,31.56
2019-04-16T11:09:58.426Z,31.36
2019-04-16T11:12:31.269Z,31.31
2019-04-16T11:15:04.303Z,30.34
2019-04-16T11:20:00.020Z,30.14
2019-04-16T11:22:34.109Z,30.45
2019-04-16T11:25:08.474Z,30.26
2019-04-16T11:27:46.010Z,29.19
2019-04-16T11:30:41.346Z,29.04
2019-04-16T11:33:10.031Z,29.04
2019-04-16T11:35:42.899Z,29.14
2019-04-16T11:38:17.533Z,28.07
2019-04-16T11:40:49.901Z,31.92
2019-04-16T11:43:22.419Z,31.92
2019-04-16T11:45:55.307Z,28.39
2019-04-16T11:48:29.596Z,31.34
2019-04-16T11:51:03.620Z,26.55
2019-04-16T11:53:37.336Z,26.13
2019-04-16T11:56:10.045Z,27.35
2019-04-16T11:58:46.319Z,26.00
2019-04-16T12:01:33.338Z,22.96
2019-04-16T12:04:10.939Z,22.96
2019-04-16T12:07:05.159Z,23.40
2019-04-16T12:09:55.433Z,22.20
2019-04-16T12:12:46.357Z,21.42
2019-04-16T12:15:20.628Z,19.89
2019-04-16T12:18:11.334Z,20.25
2019-04-16T12:20:45.472Z,18.10
2019-04-16T12:23:17.754Z,19.07
2019-04-16T12:25:58.039Z,18.85
2019-04-16T12:28:32.395Z,16.55
2019-04-16T12:31:06.270Z,16.74
2019-04-16T12:33:42.413Z,17.67
2019-04-16T12:36:19.353Z,16.97
2019-04-16T12:39:09.792Z,16.14
2019-04-16T12:41:42.703Z,16.14
2019-04-16T12:44:44.417Z,15.87
2019-04-16T12:47:12.532Z,15.99
2019-04-16T12:50:05.919Z,15.77
2019-04-16T12:54:38.716Z,13.82
2019-04-16T12:57:15.020Z,14.33
2019-04-16T13:00:01.150Z,14.95
2019-04-16T13:02:41.855Z,16.08
2019-04-16T13:05:20.881Z,18.96
2019-04-16T13:07:58.613Z,19.92
2019-04-16T13:10:32.657Z,21.28
2019-04-16T13:13:24.972Z,22.05
2019-04-16T13:15:59.347Z,22.71
2019-04-16T13:18:33.471Z,23.85
2019-04-16T13:21:07.416Z,25.13
2019-04-16T13:23:41.491Z,26.09
2019-04-16T13:26:15.741Z,25.96
2019-04-16T13:28:48.335Z,26.66
2019-04-16T13:31:20.778Z,26.96
2019-04-16T13:33:52.507Z,27.90
2019-04-16T13:36:27.822Z,27.84
2019-04-16T13:39:05.714Z,29.05
2019-04-16T13:41:39.289Z,28.84
2019-04-16T13:44:18.576Z,29.76
2019-04-16T13:46:50.574Z,29.38
2019-04-16T13:49:24.522Z,29.97
2019-04-16T13:51:57.636Z,31.18
2019-04-16T13:54:47.645Z,29.85
2019-04-16T13:57:22.861Z,29.10
2019-04-16T14:00:15.399Z,27.93
2019-04-16T14:02:55.296Z,26.81
2019-04-16T14:05:28.654Z,26.00
2019-04-16T14:08:01.309Z,25.05
2019-04-16T14:10:33.834Z,24.01
2019-04-16T14:13:12.366Z,24.01
2019-04-16T14:15:44.614Z,23.52
2019-04-16T14:18:15.429Z,22.53
2019-04-16T14:20:47.874Z,21.72
2019-04-16T14:23:20.499Z,21.33
2019-04-16T14:25:53.049Z,19.31
2019-04-16T14:28:25.539Z,19.73
2019-04-16T14:30:57.899Z,21.15
2019-04-16T14:33:32.565Z,22.42
2019-04-16T14:36:06.414Z,22.53
2019-04-16T14:38:52.427Z,23.33
2019-04-16T14:41:26.363Z,23.51
2019-04-16T14:44:12.878Z,23.73
2019-04-16T14:46:49.051Z,23.96
2019-04-16T14:49:21.486Z,24.89
2019-04-16T14:51:54.289Z,25.73
2019-04-16T14:54:28.553Z,26.98
2019-04-16T14:57:02.572Z,26.98
2019-04-16T14:59:42.791Z,27.79
2019-04-16T15:02:30.530Z,28.06
2019-04-16T15:05:02.763Z,28.68
2019-04-16T15:07:49.376Z,28.96
2019-04-16T15:10:40.296Z,30.11
2019-04-16T15:13:12.553Z,35.54
2019-04-16T15:15:46.526Z,35.54
2019-04-16T15:18:20.514Z,38.46
2019-04-16T15:21:13.233Z,39.69
2019-04-16T15:23:47.578Z,42.47
2019-04-16T15:26:37.439Z,42.47
2019-04-16T15:29:11.452Z,43.87
2019-04-16T15:31:50.269Z,44.55
2019-04-16T15:34:30.295Z,44.90
2019-04-16T15:37:13.729Z,46.99
2019-04-16T15:39:50.626Z,46.99
2019-04-16T15:42:40.588Z,48.35
2019-04-16T15:45:35.297Z,51.63
2019-04-16T15:49:58.035Z,50.34
2019-04-16T15:52:38.064Z,49.41
2019-04-16T15:55:27.733Z,51.17
2019-04-16T15:58:07.744Z,52.51
2019-04-16T16:00:44.298Z,51.78
2019-04-16T16:03:24.659Z,53.16
2019-04-16T16:06:11.480Z,53.16
2019-04-16T16:08:48.601Z,52.92
2019-04-16T16:11:28.846Z,52.46
2019-04-16T16:14:01.661Z,52.67
2019-04-16T16:16:42.006Z,51.29
2019-04-16T16:19:12.028Z,50.83
2019-04-16T16:21:43.421Z,49.99
2019-04-16T16:24:15.839Z,50.31
2019-04-16T16:26:48.419Z,51.02
2019-04-16T16:29:21.135Z,54.02
2019-04-16T16:31:53.761Z,55.26
2019-04-16T16:34:26.508Z,56.08
2019-04-16T16:36:59.302Z,57.73
2019-04-16T16:39:31.682Z,55.92
2019-04-16T16:42:04.290Z,55.92
2019-04-16T16:44:39.685Z,56.59
2019-04-16T16:47:14.282Z,56.12
2019-04-16T16:49:47.034Z,56.58
2019-04-16T16:52:21.346Z,56.58
2019-04-16T16:54:55.586Z,56.07
2019-04-16T16:57:30.585Z,56.07
2019-04-16T17:00:04.887Z,54.74
2019-04-16T17:02:49.311Z,52.71
2019-04-16T17:05:33.298Z,54.74
2019-04-16T17:08:05.974Z,54.36
2019-04-16T17:10:42.403Z,56.20
2019-04-16T17:13:16.965Z,56.20
2019-04-16T17:15:48.688Z,54.90
2019-04-16T17:18:21.293Z,54.77
2019-04-16T17:20:55.270Z,55.31
2019-04-16T17:23:27.856Z,54.61
2019-04-16T17:26:00.323Z,54.61
2019-04-16T17:28:32.978Z,55.52
2019-04-16T17:31:05.914Z,55.52
2019-04-16T17:33:40.073Z,56.83
2019-04-16T17:36:12.907Z,56.44
2019-04-16T17:38:45.452Z,55.63
2019-04-16T17:41:34.834Z,55.65
2019-04-16T17:44:09.302Z,55.96
2019-04-16T17:46:43.444Z,57.12
2019-04-16T17:49:24.278Z,57.12
2019-04-16T17:52:02.458Z,57.73
2019-04-16T17:54:48.740Z,57.65
2019-04-16T17:57:32.361Z,58.40
2019-04-16T18:00:22.929Z,59.99
2019-04-16T18:03:03.091Z,62.12
2019-04-16T18:05:36.627Z,62.66
2019-04-16T18:08:12.114Z,62.68
2019-04-16T18:10:44.338Z,61.87
2019-04-16T18:13:16.644Z,62.10
2019-04-16T18:15:51.908Z,62.10
2019-04-16T18:18:39.801Z,61.97
2019-04-16T18:21:22.799Z,61.80
2019-04-16T18:23:57.027Z,61.23
2019-04-16T18:26:47.844Z,61.16
2019-04-16T18:29:32.844Z,61.30
2019-04-16T18:32:05.483Z,60.64
2019-04-16T18:34:56.072Z,60.53
2019-04-16T18:37:30.300Z,61.31
2019-04-16T18:40:19.703Z,61.62
2019-04-16T18:42:59.919Z,61.62
2019-04-16T18:45:55.618Z,59.08
2019-04-16T18:48:28.311Z,58.16
2019-04-16T18:51:01.988Z,58.80
2019-04-16T18:53:34.467Z,58.80
2019-04-16T18:56:07.307Z,58.95
2019-04-16T18:58:41.841Z,58.25
2019-04-16T19:01:16.389Z,58.20
2019-04-16T19:03:48.986Z,58.20
2019-04-16T19:06:21.506Z,58.43
2019-04-16T19:08:54.461Z,58.29
2019-04-16T19:11:27.304Z,58.28
2019-04-16T19:14:00.313Z,58.96
2019-04-16T19:16:32.818Z,58.84
2019-04-16T19:19:05.504Z,58.84
2019-04-16T19:21:42.411Z,59.54
2019-04-16T19:24:14.473Z,59.54
2019-04-16T19:26:46.879Z,59.25
2019-04-16T19:29:19.459Z,59.26
2019-04-16T19:31:54.982Z,60.69
2019-04-16T19:34:26.653Z,62.48
2019-04-16T19:37:00.830Z,64.70
2019-04-16T19:39:34.723Z,64.94
2019-04-16T19:42:11.090Z,64.61
2019-04-16T19:44:41.897Z,64.98
2019-04-16T19:47:14.342Z,64.98
2019-04-16T19:49:46.981Z,64.98
2019-04-16T19:52:18.646Z,65.48
2019-04-16T19:54:51.332Z,65.14
2019-04-16T19:57:24.025Z,64.63
2019-04-16T19:59:55.811Z,64.63
2019-04-16T20:02:33.041Z,64.22
2019-04-16T20:05:02.727Z,64.04
2019-04-16T20:07:35.870Z,64.26
2019-04-16T20:10:08.818Z,64.26
2019-04-16T20:12:41.395Z,63.87
2019-04-16T20:15:14.299Z,64.72
2019-04-16T20:17:46.984Z,66.09
2019-04-16T20:20:19.522Z,66.09
2019-04-16T20:22:52.284Z,66.50
2019-04-16T20:25:24.820Z,68.14
2019-04-16T20:27:57.353Z,68.14
2019-04-16T20:30:31.301Z,67.94
2019-04-16T20:33:04.402Z,68.29
2019-04-16T20:35:36.763Z,68.29
2019-04-16T20:38:09.317Z,68.72
2019-04-16T20:40:41.854Z,69.54
2019-04-16T20:43:14.550Z,69.54
2019-04-16T20:45:47.061Z,69.37
2019-04-16T20:48:21.304Z,69.30
2019-04-16T20:51:41.737Z,69.76
2019-04-16T20:54:18.712Z,69.76
2019-04-16T20:56:53.136Z,69.86
2019-04-16T20:59:31.422Z,69.99
2019-04-16T21:02:11.569Z,69.99
2019-04-16T21:04:46.145Z,70.36
2019-04-16T21:07:21.815Z,69.97
2019-04-16T21:10:15.613Z,70.19
2019-04-16T21:12:55.741Z,70.70
2019-04-16T21:15:35.669Z,70.61
2019-04-16T21:18:15.940Z,70.94
2019-04-16T21:20:55.232Z,70.90
2019-04-16T21:23:34.725Z,71.26
2019-04-16T21:26:07.122Z,71.30
2019-04-16T21:28:58.588Z,71.82
2019-04-16T21:31:45.314Z,71.82
2019-04-16T21:34:29.892Z,72.34
2019-04-16T21:37:02.583Z,72.53
2019-04-16T21:39:36.824Z,72.13
2019-04-16T21:42:09.444Z,72.75
2019-04-16T21:44:44.659Z,72.86
2019-04-16T21:47:16.683Z,72.82
2019-04-16T21:49:49.317Z,73.12
2019-04-16T21:52:23.275Z,73.06
2019-04-16T21:54:56.365Z,73.06
2019-04-16T21:57:28.292Z,73.52
2019-04-16T22:00:00.748Z,73.43
2019-04-16T22:02:37.924Z,73.43
2019-04-16T22:05:16.730Z,73.71
2019-04-16T22:07:49.442Z,73.62
2019-04-16T22:10:24.314Z,73.23
2019-04-16T22:13:00.795Z,73.29
2019-04-16T22:15:48.573Z,73.22
2019-04-16T22:18:23.807Z,73.36
2019-04-16T22:21:01.033Z,73.03
2019-04-16T22:23:35.490Z,73.51
2019-04-16T22:26:11.015Z,72.98
2019-04-16T22:28:45.518Z,73.65
2019-04-16T22:31:37.187Z,73.68
2019-04-16T22:34:06.735Z,73.37
2019-04-16T22:36:39.300Z,73.00
2019-04-16T22:39:22.852Z,73.29
2019-04-16T22:41:58.339Z,73.36
2019-04-16T22:44:46.355Z,73.76
2019-04-16T22:47:20.393Z,73.44
2019-04-16T22:49:55.137Z,73.11
2019-04-16T22:52:28.602Z,73.11
2019-04-16T22:55:01.342Z,73.97
2019-04-16T22:57:36.810Z,73.79
2019-04-16T23:00:12.975Z,73.11
2019-04-16T23:02:48.299Z,71.59
2019-04-16T23:05:21.513Z,72.95
2019-04-16T23:07:55.322Z,72.62
2019-04-16T23:10:27.729Z,73.04
2019-04-16T23:13:01.635Z,73.04
2019-04-16T23:15:35.404Z,73.07
2019-04-16T23:18:07.901Z,73.07
2019-04-16T23:20:42.008Z,72.94
2019-04-16T23:23:18.048Z,73.26
2019-04-16T23:25:49.170Z,72.96
2019-04-16T23:28:21.866Z,73.80
2019-04-16T23:30:57.562Z,73.57
2019-04-16T23:33:32.858Z,73.33
2019-04-16T23:36:06.482Z,73.46
2019-04-16T23:38:39.332Z,73.98
2019-04-16T23:41:16.658Z,73.24
2019-04-16T23:44:03.044Z,73.24
2019-04-16T23:46:37.604Z,73.41
2019-04-16T23:49:30.962Z,75.36
2019-04-16T23:52:03.849Z,76.70
2019-04-16T23:54:40.765Z,76.68
2019-04-16T23:57:18.330Z,77.43
